createdAt,value
2022-08-29T00:00:23.763Z,6.27
2022-08-29T00:02:56.115Z,5.60
2022-08-29T00:05:27.037Z,6.30
2022-08-29T00:08:04.283Z,5.73
2022-08-29T00:10:33.751Z,6.67
2022-08-29T00:13:01.966Z,5.63
2022-08-29T00:15:31.473Z,6.67
2022-08-29T00:18:09.861Z,6.00
2022-08-29T00:20:39.376Z,6.83
2022-08-29T00:23:09.010Z,6.40
2022-08-29T00:25:40.754Z,6.70
2022-08-29T00:28:08.838Z,6.30
2022-08-29T00:30:38.384Z,6.30
2022-08-29T00:33:06.717Z,6.23
2022-08-29T00:35:38.487Z,6.47
2022-08-29T00:38:16.600Z,6.80
2022-08-29T00:40:51.999Z,6.03
2022-08-29T00:43:24.731Z,6.40
2022-08-29T00:46:13.060Z,6.93
2022-08-29T00:48:43.434Z,6.80
2022-08-29T00:51:22.669Z,7.07
2022-08-29T00:53:58.536Z,6.80
2022-08-29T00:56:27.925Z,7.53
2022-08-29T00:59:01.873Z,6.67
2022-08-29T01:01:30.969Z,7.20
2022-08-29T01:04:00.501Z,6.60
2022-08-29T01:06:29.816Z,7.80
2022-08-29T01:08:59.949Z,7.70
2022-08-29T01:11:48.031Z,7.10
2022-08-29T01:14:18.561Z,7.40
2022-08-29T01:16:50.028Z,7.10
2022-08-29T01:19:24.805Z,7.00
2022-08-29T01:22:03.491Z,7.57
2022-08-29T01:24:38.167Z,7.03
2022-08-29T01:27:06.785Z,7.20
2022-08-29T01:29:35.655Z,7.00
2022-08-29T01:32:04.385Z,6.50
2022-08-29T01:34:33.037Z,6.70
2022-08-29T01:37:03.142Z,7.20
2022-08-29T01:39:37.523Z,6.97
2022-08-29T01:42:10.619Z,7.00
2022-08-29T01:44:42.517Z,6.50
2022-08-29T01:47:11.830Z,6.90
2022-08-29T01:49:41.258Z,6.40
2022-08-29T01:52:10.174Z,7.40
2022-08-29T01:54:41.413Z,7.30
2022-08-29T01:57:13.146Z,6.43
2022-08-29T01:59:42.266Z,6.63
2022-08-29T02:02:12.918Z,6.57
2022-08-29T02:04:42.759Z,7.10
2022-08-29T02:07:12.875Z,6.07
2022-08-29T02:09:45.975Z,6.07
2022-08-29T02:12:15.694Z,6.93
2022-08-29T02:14:49.334Z,6.50
2022-08-29T02:17:17.732Z,6.57
2022-08-29T02:19:46.122Z,6.67
2022-08-29T02:22:14.830Z,6.53
2022-08-29T02:24:44.625Z,7.00
2022-08-29T02:27:14.220Z,6.63
2022-08-29T02:29:43.720Z,6.00
2022-08-29T02:32:14.850Z,6.73
2022-08-29T02:34:48.540Z,6.13
2022-08-29T02:37:17.888Z,6.53
2022-08-29T02:39:50.902Z,6.50
2022-08-29T02:42:20.180Z,6.00
2022-08-29T02:44:48.804Z,6.40
2022-08-29T02:47:16.974Z,7.00
2022-08-29T02:49:45.767Z,6.10
2022-08-29T02:52:14.582Z,6.50
2022-08-29T02:54:43.763Z,6.30
2022-08-29T02:57:13.264Z,6.50
2022-08-29T02:59:41.847Z,6.50
2022-08-29T03:02:11.328Z,7.17
2022-08-29T03:04:39.787Z,6.50
2022-08-29T03:07:09.446Z,6.83
2022-08-29T03:09:37.668Z,6.20
2022-08-29T03:12:05.984Z,7.20
2022-08-29T03:14:36.888Z,6.87
2022-08-29T03:17:05.312Z,7.27
2022-08-29T03:19:37.545Z,7.17
2022-08-29T03:22:05.731Z,7.10
2022-08-29T03:24:35.680Z,6.83
2022-08-29T03:27:03.914Z,6.43
2022-08-29T03:29:34.184Z,6.33
2022-08-29T03:32:13.497Z,5.90
2022-08-29T03:34:43.164Z,6.13
2022-08-29T03:37:12.415Z,6.00
2022-08-29T03:39:40.968Z,6.10
2022-08-29T03:42:09.718Z,6.17
2022-08-29T03:44:40.865Z,6.30
2022-08-29T03:47:11.959Z,6.40
2022-08-29T03:49:41.163Z,6.00
2022-08-29T03:52:11.400Z,6.40
2022-08-29T03:54:40.034Z,5.30
2022-08-29T03:57:09.493Z,5.70
2022-08-29T03:59:37.881Z,6.03
2022-08-29T04:02:07.220Z,5.70
2022-08-29T04:04:57.209Z,6.67
2022-08-29T04:07:26.398Z,5.43
2022-08-29T04:09:54.887Z,6.20
2022-08-29T04:12:28.859Z,5.77
2022-08-29T04:14:57.112Z,5.67
2022-08-29T04:17:25.307Z,5.30
2022-08-29T04:19:55.280Z,5.90
2022-08-29T04:22:23.399Z,5.23
2022-08-29T04:24:52.641Z,5.50
2022-08-29T04:27:20.907Z,5.43
2022-08-29T04:29:50.143Z,5.30
2022-08-29T04:32:20.978Z,5.70
2022-08-29T04:34:50.745Z,6.03
2022-08-29T04:37:20.333Z,5.47
2022-08-29T04:39:49.441Z,6.47
2022-08-29T04:42:20.170Z,5.80
2022-08-29T04:44:51.335Z,5.57
2022-08-29T04:47:21.725Z,6.10
2022-08-29T04:49:56.603Z,5.40
2022-08-29T04:52:28.875Z,5.40
2022-08-29T04:54:58.505Z,6.70
2022-08-29T04:57:29.322Z,6.30
2022-08-29T05:00:00.010Z,5.60
2022-08-29T05:02:30.175Z,6.10
2022-08-29T05:04:58.398Z,5.50
2022-08-29T05:07:29.417Z,5.53
2022-08-29T05:10:00.341Z,4.80
2022-08-29T05:12:30.476Z,5.03
2022-08-29T05:14:59.149Z,5.80
2022-08-29T05:17:29.529Z,5.50
2022-08-29T05:19:57.745Z,5.30
2022-08-29T05:22:25.989Z,5.27
2022-08-29T05:24:58.219Z,5.23
2022-08-29T05:27:26.970Z,5.50
2022-08-29T05:29:56.772Z,5.60
2022-08-29T05:32:24.842Z,4.90
2022-08-29T05:34:55.995Z,5.60
2022-08-29T05:37:25.051Z,5.70
2022-08-29T05:39:53.243Z,5.33
2022-08-29T05:42:23.494Z,5.37
2022-08-29T05:44:54.293Z,5.33
2022-08-29T05:47:22.581Z,5.57
2022-08-29T05:49:52.246Z,5.27
2022-08-29T05:52:22.039Z,5.00
2022-08-29T05:54:50.529Z,4.63
2022-08-29T05:57:25.873Z,5.37
2022-08-29T05:59:56.285Z,4.40
2022-08-29T06:02:25.430Z,5.30
2022-08-29T06:04:55.161Z,5.50
2022-08-29T06:07:25.429Z,5.77
2022-08-29T06:09:55.020Z,5.30
2022-08-29T06:12:34.118Z,5.70
2022-08-29T06:15:03.731Z,4.77
2022-08-29T06:17:31.911Z,5.00
2022-08-29T06:20:03.391Z,5.40
2022-08-29T06:22:32.146Z,5.47
2022-08-29T06:25:11.847Z,5.30
2022-08-29T06:27:59.548Z,5.73
2022-08-29T06:30:32.721Z,5.23
2022-08-29T06:33:01.819Z,6.10
2022-08-29T06:35:31.126Z,5.30
2022-08-29T06:37:59.379Z,6.10
2022-08-29T06:40:38.281Z,5.63
2022-08-29T06:43:07.893Z,5.83
2022-08-29T06:45:44.111Z,5.27
2022-08-29T06:48:13.974Z,6.30
2022-08-29T06:50:45.668Z,5.10
2022-08-29T06:53:26.837Z,6.40
2022-08-29T06:56:06.727Z,5.27
2022-08-29T06:58:42.014Z,5.93
2022-08-29T07:01:13.494Z,5.80
2022-08-29T07:03:42.581Z,5.57
2022-08-29T07:06:18.588Z,5.60
2022-08-29T07:08:54.915Z,5.70
2022-08-29T07:11:26.025Z,5.00
2022-08-29T07:14:07.741Z,5.77
2022-08-29T07:16:38.946Z,5.83
2022-08-29T07:19:08.847Z,5.60
2022-08-29T07:21:38.507Z,5.30
2022-08-29T07:24:08.108Z,5.97
2022-08-29T07:26:39.044Z,5.60
2022-08-29T07:29:12.051Z,6.27
2022-08-29T07:31:40.314Z,5.50
2022-08-29T07:34:08.745Z,5.47
2022-08-29T07:36:38.528Z,5.13
2022-08-29T07:39:09.254Z,5.90
2022-08-29T07:41:38.545Z,5.57
2022-08-29T07:44:09.685Z,5.27
2022-08-29T07:46:39.493Z,6.07
2022-08-29T07:49:08.585Z,5.87
2022-08-29T07:51:37.402Z,5.30
2022-08-29T07:54:16.775Z,5.60
2022-08-29T07:56:48.088Z,5.47
2022-08-29T07:59:16.435Z,5.23
2022-08-29T08:01:48.612Z,5.43
2022-08-29T08:04:17.195Z,4.50
2022-08-29T08:06:47.971Z,6.13
2022-08-29T08:09:16.427Z,5.73
2022-08-29T08:11:46.198Z,5.87
2022-08-29T08:14:15.367Z,4.80
2022-08-29T08:16:46.110Z,5.27
2022-08-29T08:19:16.573Z,5.10
2022-08-29T08:21:49.791Z,5.30
2022-08-29T08:24:19.919Z,5.03
2022-08-29T08:26:53.021Z,5.00
2022-08-29T08:29:21.265Z,4.10
2022-08-29T08:31:53.215Z,4.90
2022-08-29T08:34:22.988Z,4.83
2022-08-29T08:36:51.087Z,5.30
2022-08-29T08:39:19.406Z,5.60
2022-08-29T08:41:53.712Z,5.13
2022-08-29T08:44:48.855Z,4.67
2022-08-29T08:47:24.678Z,4.90
2022-08-29T08:49:56.186Z,4.77
2022-08-29T08:52:31.424Z,4.50
2022-08-29T08:55:04.386Z,5.10
2022-08-29T08:57:39.712Z,4.50
2022-08-29T09:00:11.661Z,4.50
2022-08-29T09:02:52.649Z,4.40
2022-08-29T09:05:33.011Z,4.57
2022-08-29T09:08:06.984Z,4.43
2022-08-29T09:10:42.520Z,4.60
2022-08-29T09:13:21.642Z,4.37
2022-08-29T09:15:56.359Z,4.77
2022-08-29T09:18:36.174Z,4.40
2022-08-29T09:21:39.526Z,5.60
2022-08-29T09:24:08.750Z,4.30
2022-08-29T09:26:37.316Z,4.10
2022-08-29T09:29:08.908Z,4.20
2022-08-29T09:31:37.760Z,4.30
2022-08-29T09:34:12.136Z,4.00
2022-08-29T09:36:47.789Z,4.87
2022-08-29T09:39:21.014Z,4.67
2022-08-29T09:41:54.638Z,4.20
2022-08-29T09:44:27.576Z,4.47
2022-08-29T09:47:08.418Z,4.27
2022-08-29T09:49:41.572Z,4.30
2022-08-29T09:52:16.496Z,4.63
2022-08-29T09:54:57.403Z,4.87
2022-08-29T09:57:35.231Z,3.73
2022-08-29T10:00:13.702Z,4.27
2022-08-29T10:02:47.509Z,3.90
2022-08-29T10:05:48.239Z,4.27
2022-08-29T10:08:35.491Z,4.20
2022-08-29T10:11:07.787Z,4.00
2022-08-29T10:13:49.070Z,4.40
2022-08-29T10:16:38.847Z,4.37
2022-08-29T10:19:15.253Z,3.67
2022-08-29T10:21:51.638Z,3.47
2022-08-29T10:24:30.775Z,3.93
2022-08-29T10:27:07.256Z,4.43
2022-08-29T10:29:55.674Z,4.60
2022-08-29T10:32:33.704Z,3.63
2022-08-29T10:35:07.850Z,3.83
2022-08-29T10:37:50.248Z,4.03
2022-08-29T10:40:26.107Z,3.27
2022-08-29T10:43:15.013Z,3.60
2022-08-29T10:45:56.407Z,3.87
2022-08-29T10:48:30.354Z,3.70
2022-08-29T10:51:13.266Z,3.57
2022-08-29T10:53:54.208Z,2.97
2022-08-29T10:56:25.895Z,3.10
2022-08-29T10:59:02.255Z,3.00
2022-08-29T11:01:32.562Z,3.03
2022-08-29T11:04:14.076Z,2.43
2022-08-29T11:06:48.119Z,3.50
2022-08-29T11:09:20.717Z,2.97
2022-08-29T11:12:00.435Z,2.77
2022-08-29T11:14:34.651Z,2.80
2022-08-29T11:17:05.740Z,2.80
2022-08-29T11:19:41.839Z,3.37
2022-08-29T11:22:15.458Z,2.13
2022-08-29T11:24:47.282Z,2.97
2022-08-29T11:27:25.529Z,3.00
2022-08-29T11:30:03.574Z,3.30
2022-08-29T11:32:48.190Z,3.10
2022-08-29T11:35:22.097Z,2.53
2022-08-29T11:38:26.286Z,2.77
2022-08-29T11:41:28.296Z,2.83
2022-08-29T11:44:04.437Z,3.00
2022-08-29T11:46:49.287Z,2.50
2022-08-29T11:49:36.676Z,2.50
2022-08-29T11:52:28.817Z,2.93
2022-08-29T11:55:29.255Z,2.70
2022-08-29T11:58:08.808Z,2.30
2022-08-29T12:00:45.906Z,2.20
2022-08-29T12:03:57.586Z,2.50
2022-08-29T12:06:55.791Z,2.90
2022-08-29T12:09:44.024Z,2.20
2022-08-29T12:12:18.362Z,2.63
2022-08-29T12:14:53.149Z,3.00
2022-08-29T12:18:03.807Z,2.10
2022-08-29T12:20:42.989Z,2.40
2022-08-29T12:23:36.221Z,2.43
2022-08-29T12:26:22.069Z,1.93
2022-08-29T12:29:00.748Z,2.40
2022-08-29T12:32:18.065Z,1.97
2022-08-29T12:35:12.066Z,2.40
2022-08-29T12:37:52.675Z,2.03
2022-08-29T12:40:35.816Z,2.37
2022-08-29T12:43:37.429Z,2.20
2022-08-29T12:46:17.386Z,1.97
2022-08-29T12:48:57.504Z,2.00
2022-08-29T12:51:37.659Z,1.90
2022-08-29T12:54:10.271Z,1.70
2022-08-29T12:56:43.707Z,1.60
2022-08-29T12:59:18.661Z,2.00
2022-08-29T13:01:50.271Z,1.60
2022-08-29T13:04:32.553Z,2.13
2022-08-29T13:07:02.596Z,2.13
2022-08-29T13:09:33.695Z,2.40
2022-08-29T13:12:10.469Z,1.93
2022-08-29T13:14:53.491Z,1.90
2022-08-29T13:17:25.231Z,2.30
2022-08-29T13:20:40.374Z,2.10
2022-08-29T13:23:20.400Z,2.30
2022-08-29T13:25:54.570Z,2.50
2022-08-29T13:28:27.075Z,2.07
2022-08-29T13:31:36.297Z,2.30
2022-08-29T13:34:24.564Z,3.03
2022-08-29T13:36:59.434Z,2.20
2022-08-29T13:39:39.276Z,2.47
2022-08-29T13:42:33.054Z,2.47
2022-08-29T13:45:15.419Z,2.50
2022-08-29T13:47:57.124Z,2.60
2022-08-29T13:50:27.083Z,2.63
2022-08-29T13:52:56.572Z,2.63
2022-08-29T13:55:29.335Z,3.17
2022-08-29T13:57:57.859Z,2.60
2022-08-29T14:00:35.218Z,2.40
2022-08-29T14:03:12.278Z,2.80
2022-08-29T14:05:50.154Z,2.90
2022-08-29T14:08:20.412Z,3.20
2022-08-29T14:10:54.147Z,2.33
2022-08-29T14:13:22.774Z,2.20
2022-08-29T14:16:01.267Z,2.10
2022-08-29T14:18:46.753Z,2.13
2022-08-29T14:21:24.925Z,2.50
2022-08-29T14:24:04.921Z,2.10
2022-08-29T14:26:34.505Z,2.50
2022-08-29T14:29:03.572Z,2.30
2022-08-29T14:31:34.664Z,2.70
2022-08-29T14:34:11.710Z,2.80
2022-08-29T14:36:43.544Z,3.17
2022-08-29T14:39:17.564Z,2.77
2022-08-29T14:41:48.737Z,3.00
2022-08-29T14:44:24.232Z,3.23
2022-08-29T14:46:53.169Z,3.07
2022-08-29T14:49:21.761Z,2.47
2022-08-29T14:51:50.063Z,3.00
2022-08-29T14:54:21.162Z,2.70
2022-08-29T14:56:53.667Z,3.03
2022-08-29T14:59:27.702Z,2.30
2022-08-29T15:01:57.550Z,2.67
2022-08-29T15:04:35.328Z,2.40
2022-08-29T15:07:08.787Z,2.30
2022-08-29T15:09:38.398Z,2.93
2022-08-29T15:12:09.312Z,2.63
2022-08-29T15:14:38.042Z,2.97
2022-08-29T15:17:07.891Z,2.40
2022-08-29T15:22:27.069Z,2.57
2022-08-29T15:24:55.876Z,2.67
2022-08-29T15:27:28.681Z,2.20
2022-08-29T15:29:58.417Z,2.23
2022-08-29T15:32:26.921Z,2.23
2022-08-29T15:34:56.168Z,2.20
2022-08-29T15:37:25.100Z,2.60
2022-08-29T15:39:55.085Z,2.70
2022-08-29T15:42:31.131Z,3.07
2022-08-29T15:45:07.710Z,2.50
2022-08-29T15:47:37.449Z,2.40
2022-08-29T15:50:15.745Z,2.13
2022-08-29T15:52:45.461Z,2.67
2022-08-29T15:55:14.016Z,2.37
2022-08-29T15:57:51.989Z,2.27
2022-08-29T16:00:31.167Z,2.27
2022-08-29T16:03:12.624Z,2.60
2022-08-29T16:05:43.002Z,2.43
2022-08-29T16:08:16.647Z,2.50
2022-08-29T16:10:50.274Z,2.30
2022-08-29T16:13:18.946Z,2.73
2022-08-29T16:15:59.243Z,2.70
2022-08-29T16:18:31.445Z,2.60
2022-08-29T16:21:02.682Z,2.57
2022-08-29T16:23:32.168Z,2.03
2022-08-29T16:26:09.227Z,2.30
2022-08-29T16:28:39.891Z,2.30
2022-08-29T16:31:13.711Z,2.53
2022-08-29T16:33:44.121Z,2.30
2022-08-29T16:36:17.636Z,2.23
2022-08-29T16:38:46.944Z,2.10
2022-08-29T16:41:18.842Z,2.40
2022-08-29T16:43:52.204Z,2.23
2022-08-29T16:46:27.286Z,2.50
2022-08-29T16:49:00.690Z,3.03
2022-08-29T16:51:30.215Z,2.97
2022-08-29T16:54:02.533Z,2.30
2022-08-29T16:56:32.977Z,2.67
2022-08-29T16:59:01.836Z,2.90
2022-08-29T17:01:37.059Z,2.73
2022-08-29T17:04:07.544Z,2.40
2022-08-29T17:06:37.568Z,2.93
2022-08-29T17:09:08.859Z,2.13
2022-08-29T17:11:38.415Z,3.10
2022-08-29T17:14:17.354Z,2.43
2022-08-29T17:16:49.526Z,2.53
2022-08-29T17:19:19.855Z,2.70
2022-08-29T17:21:48.067Z,2.83
2022-08-29T17:24:16.403Z,2.53
2022-08-29T17:26:53.883Z,3.13
2022-08-29T17:29:25.813Z,3.40
2022-08-29T17:31:56.497Z,2.60
2022-08-29T17:34:25.755Z,2.50
2022-08-29T17:36:56.589Z,3.03
2022-08-29T17:39:28.295Z,2.63
2022-08-29T17:42:10.435Z,3.30
2022-08-29T17:44:47.873Z,3.97
2022-08-29T17:47:20.622Z,2.50
2022-08-29T17:49:50.045Z,3.27
2022-08-29T17:52:20.799Z,3.00
2022-08-29T17:54:50.118Z,3.43
2022-08-29T17:57:19.095Z,3.20
2022-08-29T17:59:48.853Z,3.40
2022-08-29T18:02:20.738Z,3.30
2022-08-29T18:04:50.543Z,4.13
2022-08-29T18:07:19.121Z,3.17
2022-08-29T18:09:49.284Z,3.00
2022-08-29T18:12:20.388Z,3.07
2022-08-29T18:14:54.291Z,3.30
2022-08-29T18:17:24.770Z,3.70
2022-08-29T18:19:54.958Z,3.30
2022-08-29T18:22:24.167Z,3.50
2022-08-29T18:24:56.046Z,3.30
2022-08-29T18:27:27.713Z,3.37
2022-08-29T18:29:57.284Z,3.60
2022-08-29T18:32:37.179Z,3.77
2022-08-29T18:35:08.519Z,3.40
2022-08-29T18:37:37.130Z,3.27
2022-08-29T18:40:06.112Z,3.70
2022-08-29T18:42:40.953Z,3.70
2022-08-29T18:45:14.332Z,3.73
2022-08-29T18:47:44.485Z,3.50
2022-08-29T18:50:31.465Z,4.00
2022-08-29T18:53:02.779Z,4.93
2022-08-29T18:55:32.221Z,4.70
2022-08-29T18:58:03.934Z,4.20
2022-08-29T19:00:37.728Z,5.10
2022-08-29T19:03:07.645Z,4.57
2022-08-29T19:05:38.681Z,4.57
2022-08-29T19:08:08.913Z,4.90
2022-08-29T19:10:37.302Z,6.20
2022-08-29T19:13:08.154Z,5.20
2022-08-29T19:15:41.421Z,5.60
2022-08-29T19:18:13.950Z,4.70
2022-08-29T19:21:01.429Z,6.40
2022-08-29T19:23:30.726Z,6.17
2022-08-29T19:26:01.289Z,6.60
2022-08-29T19:28:32.931Z,6.63
2022-08-29T19:31:09.873Z,6.60
2022-08-29T19:33:40.015Z,6.30
2022-08-29T19:36:14.881Z,6.80
2022-08-29T19:38:46.667Z,6.10
2022-08-29T19:41:17.867Z,6.93
2022-08-29T19:43:50.885Z,6.33
2022-08-29T19:46:25.424Z,6.20
2022-08-29T19:48:58.126Z,6.20
2022-08-29T19:51:29.805Z,6.80
2022-08-29T19:54:01.665Z,6.53
2022-08-29T19:56:33.376Z,6.30
2022-08-29T19:59:02.537Z,5.70
2022-08-29T20:01:31.934Z,5.97
2022-08-29T20:04:06.726Z,5.97
2022-08-29T20:06:35.342Z,5.87
2022-08-29T20:09:07.517Z,5.60
2022-08-29T20:11:43.682Z,5.20
2022-08-29T20:14:14.061Z,5.20
2022-08-29T20:16:45.530Z,5.10
2022-08-29T20:19:15.907Z,5.10
2022-08-29T20:21:47.808Z,5.17
2022-08-29T20:24:16.730Z,6.13
2022-08-29T20:26:50.564Z,6.60
2022-08-29T20:29:22.594Z,6.10
2022-08-29T20:31:51.975Z,6.77
2022-08-29T20:34:25.170Z,6.93
2022-08-29T20:37:12.763Z,5.90
2022-08-29T20:39:46.547Z,7.30
2022-08-29T20:42:15.249Z,6.87
2022-08-29T20:44:45.672Z,6.40
2022-08-29T20:47:15.413Z,6.50
2022-08-29T20:49:45.940Z,6.47
2022-08-29T20:52:24.373Z,6.33
2022-08-29T20:54:55.363Z,6.43
2022-08-29T20:57:23.574Z,6.50
2022-08-29T20:59:55.095Z,6.27
2022-08-29T21:02:25.069Z,7.50
2022-08-29T21:05:12.650Z,7.03
2022-08-29T21:07:46.585Z,7.03
2022-08-29T21:10:19.079Z,6.97
2022-08-29T21:12:48.805Z,8.10
2022-08-29T21:15:19.837Z,6.70
2022-08-29T21:17:50.536Z,6.53
2022-08-29T21:20:21.650Z,7.17
2022-08-29T21:22:49.879Z,6.30
2022-08-29T21:25:19.948Z,5.57
2022-08-29T21:27:55.977Z,5.70
2022-08-29T21:30:25.531Z,5.20
2022-08-29T21:32:55.547Z,4.77
2022-08-29T21:35:32.860Z,4.80
2022-08-29T21:38:03.162Z,3.40
2022-08-29T21:40:33.645Z,4.50
2022-08-29T21:43:02.324Z,4.60
2022-08-29T21:45:35.303Z,3.67
2022-08-29T21:48:07.275Z,4.50
2022-08-29T21:50:38.681Z,4.40
2022-08-29T21:53:08.022Z,4.67
2022-08-29T21:55:36.349Z,4.20
2022-08-29T21:58:07.074Z,4.07
2022-08-29T22:00:36.975Z,4.10
2022-08-29T22:03:18.068Z,4.60
2022-08-29T22:05:50.302Z,4.37
2022-08-29T22:08:29.777Z,4.10
2022-08-29T22:10:58.698Z,4.70
2022-08-29T22:13:31.755Z,4.30
2022-08-29T22:16:20.081Z,3.83
2022-08-29T22:18:53.525Z,4.30
2022-08-29T22:21:38.100Z,4.60
2022-08-29T22:24:24.016Z,4.03
2022-08-29T22:26:54.582Z,4.53
2022-08-29T22:29:22.780Z,3.70
2022-08-29T22:31:51.385Z,4.00
2022-08-29T22:34:19.903Z,4.50
2022-08-29T22:36:49.444Z,3.87
2022-08-29T22:39:19.135Z,4.23
2022-08-29T22:41:47.842Z,4.13
2022-08-29T22:44:59.884Z,4.23
2022-08-29T22:47:09.184Z,4.00
2022-08-29T22:49:40.665Z,4.40
2022-08-29T22:52:13.102Z,4.50
2022-08-29T22:54:41.659Z,4.33
2022-08-29T22:57:12.589Z,4.30
2022-08-29T22:59:42.615Z,4.50
2022-08-29T23:02:12.360Z,3.97
2022-08-29T23:04:42.260Z,4.00
2022-08-29T23:07:12.357Z,3.50
2022-08-29T23:09:42.787Z,4.83
2022-08-29T23:12:12.745Z,3.80
2022-08-29T23:14:43.468Z,4.43
2022-08-29T23:17:11.587Z,4.37
2022-08-29T23:19:41.390Z,4.20
2022-08-29T23:22:13.467Z,3.70
2022-08-29T23:24:53.797Z,3.90
2022-08-29T23:27:30.875Z,5.90
2022-08-29T23:30:00.050Z,6.00
2022-08-29T23:32:31.322Z,6.70
2022-08-29T23:34:59.465Z,6.80
2022-08-29T23:37:29.929Z,7.33
2022-08-29T23:39:59.782Z,6.70
2022-08-29T23:42:29.293Z,6.73
2022-08-29T23:44:58.859Z,6.17
2022-08-29T23:47:28.575Z,6.77
2022-08-29T23:49:57.488Z,6.63
2022-08-29T23:52:26.700Z,6.43
2022-08-29T23:54:57.025Z,6.87
2022-08-29T23:57:26.162Z,6.70
